createdAt,value
2023-02-04T00:00:10.124Z,3.60
2023-02-04T00:02:38.826Z,4.72
2023-02-04T00:05:05.958Z,4.32
2023-02-04T00:07:32.850Z,3.35
2023-02-04T00:09:59.753Z,3.33
2023-02-04T00:12:26.626Z,3.30
2023-02-04T00:14:53.460Z,3.25
2023-02-04T00:17:20.316Z,3.15
2023-02-04T00:19:47.202Z,3.78
2023-02-04T00:22:14.521Z,3.15
2023-02-04T00:24:43.142Z,3.00
2023-02-04T00:27:10.638Z,3.40
2023-02-04T00:29:37.852Z,5.15
2023-02-04T00:32:05.002Z,3.92
2023-02-04T00:34:31.928Z,3.50
2023-02-04T00:36:58.790Z,4.35
2023-02-04T00:39:25.651Z,3.67
2023-02-04T00:41:52.525Z,4.10
2023-02-04T00:44:19.409Z,6.45
2023-02-04T00:46:48.401Z,3.85
2023-02-04T00:49:15.233Z,3.35
2023-02-04T00:51:46.451Z,5.75
2023-02-04T00:54:15.864Z,4.90
2023-02-04T00:56:43.320Z,2.90
2023-02-04T00:59:10.891Z,3.97
2023-02-04T01:01:38.147Z,4.03
2023-02-04T01:04:05.295Z,3.63
2023-02-04T01:06:32.254Z,5.28
2023-02-04T01:08:59.188Z,3.92
2023-02-04T01:11:26.328Z,5.07
2023-02-04T01:13:53.844Z,4.43
2023-02-04T01:16:20.778Z,4.72
2023-02-04T01:18:47.758Z,4.60
2023-02-04T01:21:15.164Z,4.22
2023-02-04T01:23:42.991Z,4.95
2023-02-04T01:26:10.201Z,4.85
2023-02-04T01:28:37.073Z,3.65
2023-02-04T01:31:04.154Z,4.32
2023-02-04T01:33:31.368Z,4.65
2023-02-04T01:35:58.321Z,2.97
2023-02-04T01:38:25.209Z,2.55
2023-02-04T01:40:52.645Z,3.05
2023-02-04T01:43:23.265Z,3.15
2023-02-04T01:45:51.234Z,2.17
2023-02-04T01:48:21.232Z,3.10
2023-02-04T01:50:49.951Z,3.10
2023-02-04T01:53:23.267Z,3.95
2023-02-04T01:55:50.826Z,3.30
2023-02-04T01:58:18.949Z,4.03
2023-02-04T02:00:46.272Z,3.80
2023-02-04T02:03:13.270Z,4.82
2023-02-04T02:05:50.351Z,4.18
2023-02-04T02:08:17.929Z,4.25
2023-02-04T02:10:47.568Z,3.63
2023-02-04T02:13:18.488Z,4.30
2023-02-04T02:15:45.876Z,3.33
2023-02-04T02:18:13.908Z,3.28
2023-02-04T02:20:43.890Z,3.90
2023-02-04T02:23:14.827Z,3.85
2023-02-04T02:25:43.167Z,3.35
2023-02-04T02:28:16.824Z,3.85
2023-02-04T02:30:49.143Z,2.90
2023-02-04T02:33:19.242Z,3.85
2023-02-04T02:35:49.978Z,3.72
2023-02-04T02:38:18.898Z,4.57
2023-02-04T02:40:46.965Z,4.35
2023-02-04T02:43:22.869Z,6.13
2023-02-04T02:45:50.598Z,4.57
2023-02-04T02:48:18.225Z,3.78
2023-02-04T02:50:45.785Z,2.75
2023-02-04T02:53:14.950Z,3.90
2023-02-04T02:55:42.972Z,3.13
2023-02-04T02:58:36.517Z,4.05
2023-02-04T03:01:07.336Z,2.95
2023-02-04T03:04:04.820Z,3.22
2023-02-04T03:06:31.936Z,3.40
2023-02-04T03:08:58.923Z,3.25
2023-02-04T03:11:29.705Z,3.00
2023-02-04T03:13:57.784Z,3.35
2023-02-04T03:16:25.071Z,4.15
2023-02-04T03:18:52.059Z,4.28
2023-02-04T03:21:18.988Z,3.45
2023-02-04T03:23:46.113Z,3.35
2023-02-04T03:26:13.667Z,3.00
2023-02-04T03:28:41.928Z,3.28
2023-02-04T03:31:10.251Z,3.80
2023-02-04T03:33:37.174Z,3.95
2023-02-04T03:36:04.227Z,3.10
2023-02-04T03:38:31.136Z,2.63
2023-02-04T03:40:57.940Z,2.67
2023-02-04T03:43:24.799Z,3.67
2023-02-04T03:45:51.745Z,3.03
2023-02-04T03:48:18.681Z,2.60
2023-02-04T03:50:45.978Z,2.47
2023-02-04T03:53:12.888Z,2.25
2023-02-04T03:55:39.782Z,2.28
2023-02-04T03:58:06.669Z,2.78
2023-02-04T04:00:33.869Z,0.73
2023-02-04T04:03:00.994Z,0.63
2023-02-04T04:05:28.778Z,0.70
2023-02-04T04:07:56.081Z,0.60
2023-02-04T04:10:23.070Z,0.50
2023-02-04T04:12:50.011Z,0.85
2023-02-04T04:15:17.419Z,0.40
2023-02-04T04:17:44.323Z,0.45
2023-02-04T04:20:12.099Z,0.40
2023-02-04T04:22:39.879Z,0.70
2023-02-04T04:25:07.764Z,0.38
2023-02-04T04:27:34.721Z,0.55
2023-02-04T04:30:01.758Z,0.60
2023-02-04T04:32:31.429Z,0.65
2023-02-04T04:34:58.355Z,0.90
2023-02-04T04:37:25.245Z,0.75
2023-02-04T04:39:52.173Z,0.70
2023-02-04T04:42:19.060Z,0.80
2023-02-04T04:44:46.170Z,0.88
2023-02-04T04:47:13.032Z,0.70
2023-02-04T04:49:39.878Z,0.82
2023-02-04T04:52:07.129Z,0.98
2023-02-04T04:54:34.200Z,1.10
2023-02-04T04:57:01.353Z,1.10
2023-02-04T04:59:28.269Z,1.17
2023-02-04T05:01:55.078Z,1.48
2023-02-04T05:04:21.976Z,1.10
2023-02-04T05:06:48.987Z,1.10
2023-02-04T05:09:17.469Z,1.20
2023-02-04T05:11:44.392Z,1.20
2023-02-04T05:14:11.286Z,1.00
2023-02-04T05:16:38.344Z,1.35
2023-02-04T05:19:05.250Z,1.30
2023-02-04T05:21:32.077Z,1.45
2023-02-04T05:23:59.270Z,1.10
2023-02-04T05:26:30.625Z,1.45
2023-02-04T05:29:00.467Z,1.70
2023-02-04T05:31:27.798Z,1.53
2023-02-04T05:33:54.923Z,1.45
2023-02-04T05:36:22.604Z,2.17
2023-02-04T05:38:49.511Z,1.95
2023-02-04T05:41:16.435Z,1.52
2023-02-04T05:43:43.329Z,1.20
2023-02-04T05:46:10.636Z,1.30
2023-02-04T05:48:37.693Z,1.17
2023-02-04T05:51:04.623Z,1.20
2023-02-04T05:53:31.883Z,1.30
2023-02-04T05:55:59.118Z,1.40
2023-02-04T05:58:25.994Z,1.30
2023-02-04T06:00:52.808Z,1.70
2023-02-04T06:03:21.591Z,1.33
2023-02-04T06:05:48.895Z,1.58
2023-02-04T06:08:16.874Z,1.38
2023-02-04T06:10:43.711Z,1.15
2023-02-04T06:13:10.640Z,1.40
2023-02-04T06:15:37.589Z,1.40
2023-02-04T06:18:04.512Z,1.50
2023-02-04T06:20:31.725Z,1.40
2023-02-04T06:22:58.695Z,1.23
2023-02-04T06:25:25.848Z,1.73
2023-02-04T06:27:52.823Z,1.60
2023-02-04T06:30:19.863Z,5.15
2023-02-04T06:32:46.779Z,3.50
2023-02-04T06:35:15.297Z,2.50
2023-02-04T06:37:42.483Z,2.00
2023-02-04T06:40:10.436Z,1.80
2023-02-04T06:42:37.298Z,2.63
2023-02-04T06:45:05.079Z,1.88
2023-02-04T06:47:32.061Z,2.25
2023-02-04T06:49:58.933Z,2.13
2023-02-04T06:52:25.796Z,2.03
2023-02-04T06:54:52.666Z,1.83
2023-02-04T06:57:19.480Z,1.95
2023-02-04T06:59:47.264Z,1.95
2023-02-04T07:02:15.507Z,2.10
2023-02-04T07:04:43.897Z,2.00
2023-02-04T07:07:11.483Z,1.77
2023-02-04T07:09:40.792Z,2.30
2023-02-04T07:12:07.786Z,2.23
2023-02-04T07:14:35.050Z,2.60
2023-02-04T07:17:02.032Z,2.38
2023-02-04T07:19:28.912Z,2.80
2023-02-04T07:21:57.049Z,3.15
2023-02-04T07:24:24.236Z,3.30
2023-02-04T07:26:51.486Z,2.72
2023-02-04T07:29:25.697Z,3.42
2023-02-04T07:31:53.832Z,3.38
2023-02-04T07:34:21.524Z,3.30
2023-02-04T07:36:48.427Z,2.88
2023-02-04T07:39:15.825Z,3.08
2023-02-04T07:41:42.682Z,3.15
2023-02-04T07:44:11.891Z,3.22
2023-02-04T07:46:38.744Z,3.13
2023-02-04T07:49:05.634Z,3.20
2023-02-04T07:51:32.473Z,3.30
2023-02-04T07:53:59.337Z,3.25
2023-02-04T07:56:26.150Z,3.00
2023-02-04T07:58:53.016Z,2.65
2023-02-04T08:01:19.913Z,2.80
2023-02-04T08:03:46.816Z,2.50
2023-02-04T08:06:14.113Z,3.50
2023-02-04T08:08:40.966Z,2.58
2023-02-04T08:11:07.932Z,2.92
2023-02-04T08:13:34.841Z,3.30
2023-02-04T08:16:01.826Z,3.45
2023-02-04T08:18:28.962Z,3.08
2023-02-04T08:20:55.840Z,3.15
2023-02-04T08:23:23.227Z,5.10
2023-02-04T08:25:50.112Z,4.13
2023-02-04T08:28:17.557Z,3.80
2023-02-04T08:30:44.876Z,3.20
2023-02-04T08:33:11.756Z,3.03
2023-02-04T08:35:38.665Z,3.95
2023-02-04T08:38:05.514Z,3.70
2023-02-04T08:40:32.828Z,4.07
2023-02-04T08:43:00.094Z,4.07
2023-02-04T08:45:27.252Z,3.13
2023-02-04T08:47:54.153Z,4.70
2023-02-04T08:50:21.212Z,2.92
2023-02-04T08:52:48.076Z,2.80
2023-02-04T08:55:15.914Z,3.35
2023-02-04T08:57:42.821Z,3.47
2023-02-04T09:00:12.234Z,3.28
2023-02-04T09:02:39.162Z,2.73
2023-02-04T09:05:06.594Z,2.35
2023-02-04T09:07:33.596Z,2.70
2023-02-04T09:10:00.469Z,2.65
2023-02-04T09:12:27.290Z,2.42
2023-02-04T09:14:54.155Z,2.45
2023-02-04T09:17:21.041Z,2.28
2023-02-04T09:19:47.886Z,2.05
2023-02-04T09:22:15.446Z,2.25
2023-02-04T09:24:42.352Z,2.08
2023-02-04T09:27:09.330Z,2.15
2023-02-04T09:29:36.239Z,2.50
2023-02-04T09:32:03.146Z,2.53
2023-02-04T09:34:30.104Z,1.73
2023-02-04T09:36:56.998Z,1.25
2023-02-04T09:39:23.929Z,1.70
2023-02-04T09:41:53.930Z,1.20
2023-02-04T09:44:24.750Z,0.85
2023-02-04T09:46:54.914Z,1.08
2023-02-04T09:51:49.966Z,1.48
2023-02-04T09:54:22.338Z,1.13
2023-02-04T09:56:50.534Z,0.90
2023-02-04T09:59:23.251Z,1.23
2023-02-04T10:02:01.171Z,1.17
2023-02-04T10:04:28.605Z,1.38
2023-02-04T10:06:58.994Z,1.55
2023-02-04T10:09:26.311Z,1.30
2023-02-04T10:11:53.411Z,1.35
2023-02-04T10:14:22.768Z,1.30
2023-02-04T10:17:01.322Z,1.40
2023-02-04T10:19:30.834Z,1.33
2023-02-04T10:21:58.573Z,1.07
2023-02-04T10:24:28.324Z,0.90
2023-02-04T10:27:08.962Z,1.02
2023-02-04T10:29:36.206Z,1.05
2023-02-04T10:32:03.204Z,0.85
2023-02-04T10:34:40.004Z,1.15
2023-02-04T10:37:20.220Z,1.00
2023-02-04T10:39:48.849Z,1.02
2023-02-04T10:42:27.750Z,2.08
2023-02-04T10:44:55.315Z,2.85
2023-02-04T10:47:28.977Z,3.00
2023-02-04T10:50:15.039Z,2.00
2023-02-04T10:52:45.747Z,1.27
2023-02-04T10:55:16.637Z,1.20
2023-02-04T10:57:46.200Z,1.63
2023-02-04T11:00:21.708Z,1.63
2023-02-04T11:02:48.559Z,1.50
2023-02-04T11:05:21.863Z,1.13
2023-02-04T11:07:50.344Z,1.10
2023-02-04T11:10:23.348Z,1.40
2023-02-04T11:12:53.251Z,1.08
2023-02-04T11:15:44.700Z,1.27
2023-02-04T11:18:20.517Z,1.17
2023-02-04T11:20:55.563Z,1.05
2023-02-04T11:23:32.223Z,1.05
2023-02-04T11:26:19.350Z,1.38
2023-02-04T11:29:01.208Z,1.13
2023-02-04T11:31:33.672Z,0.93
2023-02-04T11:34:15.893Z,1.15
2023-02-04T11:37:16.015Z,0.98
2023-02-04T11:39:45.874Z,1.00
2023-02-04T11:42:23.007Z,1.20
2023-02-04T11:44:52.399Z,0.65
2023-02-04T11:47:19.517Z,1.50
2023-02-04T11:49:53.778Z,0.98
2023-02-04T11:52:21.872Z,0.93
2023-02-04T11:55:00.966Z,0.90
2023-02-04T11:57:28.537Z,0.85
2023-02-04T11:59:55.713Z,0.80
2023-02-04T12:02:26.300Z,0.90
2023-02-04T12:05:08.642Z,0.73
2023-02-04T12:07:36.337Z,0.80
2023-02-04T12:10:15.234Z,0.60
2023-02-04T12:13:00.216Z,0.65
2023-02-04T12:15:36.380Z,0.80
2023-02-04T12:18:08.537Z,0.70
2023-02-04T12:20:37.029Z,0.98
2023-02-04T12:23:04.402Z,0.82
2023-02-04T12:25:31.708Z,0.80
2023-02-04T12:27:58.755Z,1.42
2023-02-04T12:30:26.645Z,1.17
2023-02-04T12:32:53.488Z,1.27
2023-02-04T12:35:20.440Z,1.10
2023-02-04T12:37:47.708Z,0.95
2023-02-04T12:40:19.912Z,0.75
2023-02-04T12:42:47.164Z,1.08
2023-02-04T12:45:16.298Z,0.93
2023-02-04T12:47:43.819Z,1.17
2023-02-04T12:50:14.557Z,1.00
2023-02-04T12:52:41.541Z,0.80
2023-02-04T12:55:09.251Z,0.88
2023-02-04T12:57:36.643Z,0.98
2023-02-04T13:00:04.693Z,0.93
2023-02-04T13:02:31.539Z,1.00
2023-02-04T13:04:58.372Z,0.85
2023-02-04T13:07:25.369Z,0.85
2023-02-04T13:09:52.477Z,1.33
2023-02-04T13:12:19.737Z,1.08
2023-02-04T13:14:48.606Z,1.25
2023-02-04T13:17:15.877Z,1.40
2023-02-04T13:19:43.070Z,1.27
2023-02-04T13:22:09.904Z,1.23
2023-02-04T13:24:37.200Z,1.35
2023-02-04T13:27:04.117Z,1.30
2023-02-04T13:29:30.954Z,1.10
2023-02-04T13:31:58.036Z,1.00
2023-02-04T13:34:24.989Z,1.30
2023-02-04T13:36:52.302Z,1.05
2023-02-04T13:39:19.151Z,0.80
2023-02-04T13:41:47.085Z,1.23
2023-02-04T13:44:14.311Z,0.90
2023-02-04T13:46:41.588Z,0.95
2023-02-04T13:49:08.847Z,1.17
2023-02-04T13:51:36.110Z,1.52
2023-02-04T13:54:03.368Z,1.05
2023-02-04T13:56:32.902Z,1.00
2023-02-04T13:58:59.829Z,1.25
2023-02-04T14:01:26.785Z,1.00
2023-02-04T14:03:53.621Z,1.10
2023-02-04T14:06:21.752Z,1.00
2023-02-04T14:08:49.179Z,1.10
2023-02-04T14:11:16.070Z,0.90
2023-02-04T14:13:43.336Z,1.10
2023-02-04T14:16:10.274Z,0.95
2023-02-04T14:18:37.924Z,1.30
2023-02-04T14:21:04.904Z,1.20
2023-02-04T14:23:31.773Z,0.90
2023-02-04T14:25:58.604Z,0.90
2023-02-04T14:28:25.497Z,0.90
2023-02-04T14:30:54.766Z,1.00
2023-02-04T14:33:22.428Z,1.00
2023-02-04T14:35:49.922Z,0.98
2023-02-04T14:38:18.548Z,1.05
2023-02-04T14:40:48.148Z,0.95
2023-02-04T14:43:15.436Z,1.00
2023-02-04T14:45:42.698Z,1.25
2023-02-04T14:48:10.468Z,1.23
2023-02-04T14:50:40.326Z,0.98
2023-02-04T14:53:07.231Z,1.38
2023-02-04T14:55:34.118Z,1.65
2023-02-04T14:58:01.020Z,1.63
2023-02-04T15:00:27.977Z,1.45
2023-02-04T15:02:55.293Z,1.50
2023-02-04T15:05:22.556Z,1.50
2023-02-04T15:07:49.944Z,1.30
2023-02-04T15:10:17.424Z,0.95
2023-02-04T15:12:44.849Z,1.20
2023-02-04T15:15:12.154Z,3.17
2023-02-04T15:17:39.104Z,2.83
2023-02-04T15:20:06.841Z,3.67
2023-02-04T15:22:34.075Z,1.80
2023-02-04T15:25:01.100Z,1.25
2023-02-04T15:27:27.932Z,1.50
2023-02-04T15:29:55.393Z,1.02
2023-02-04T15:32:22.693Z,1.25
2023-02-04T15:34:49.932Z,1.30
2023-02-04T15:37:17.201Z,0.88
2023-02-04T15:39:44.475Z,1.50
2023-02-04T15:42:11.348Z,1.20
2023-02-04T15:44:38.313Z,1.17
2023-02-04T15:47:06.525Z,1.10
2023-02-04T15:49:35.084Z,2.55
2023-02-04T15:52:02.653Z,4.20
2023-02-04T15:54:30.056Z,3.75
2023-02-04T15:56:57.306Z,6.82
2023-02-04T15:59:24.552Z,3.88
2023-02-04T16:01:51.840Z,2.45
2023-02-04T16:04:20.782Z,2.05
2023-02-04T16:06:58.240Z,2.00
2023-02-04T16:09:26.241Z,2.35
2023-02-04T16:11:53.513Z,2.88
2023-02-04T16:14:20.741Z,3.53
2023-02-04T16:16:47.797Z,2.65
2023-02-04T16:19:15.074Z,3.17
2023-02-04T16:21:42.358Z,3.97
2023-02-04T16:24:09.580Z,2.97
2023-02-04T16:26:36.371Z,3.80
2023-02-04T16:29:03.383Z,3.05
2023-02-04T16:31:30.376Z,3.88
2023-02-04T16:33:57.256Z,4.60
2023-02-04T16:36:24.494Z,3.70
2023-02-04T16:38:55.101Z,4.47
2023-02-04T16:41:22.560Z,4.35
2023-02-04T16:43:54.102Z,5.10
2023-02-04T16:46:38.567Z,5.22
2023-02-04T16:49:08.985Z,4.05
2023-02-04T16:54:03.157Z,2.97
2023-02-04T16:56:35.126Z,3.38
2023-02-04T16:59:02.773Z,3.63
2023-02-04T17:01:30.210Z,3.13
2023-02-04T17:04:00.549Z,3.03
2023-02-04T17:08:55.689Z,3.88
2023-02-04T17:11:29.357Z,3.28
2023-02-04T17:13:57.159Z,3.25
2023-02-04T17:16:24.929Z,3.92
2023-02-04T17:18:52.596Z,3.80
2023-02-04T17:21:19.969Z,3.67
2023-02-04T17:23:47.292Z,3.05
2023-02-04T17:26:14.771Z,3.20
2023-02-04T17:28:42.276Z,3.60
2023-02-04T17:31:12.949Z,3.28
2023-02-04T17:33:40.327Z,3.10
2023-02-04T17:36:08.111Z,3.53
2023-02-04T17:38:39.563Z,4.25
2023-02-04T17:41:09.792Z,4.53
2023-02-04T17:44:27.633Z,2.88
2023-02-04T17:47:09.688Z,2.63
2023-02-04T17:50:00.359Z,2.28
2023-02-04T17:52:46.940Z,1.90
2023-02-04T17:55:49.697Z,1.83
2023-02-04T17:58:30.764Z,1.63
2023-02-04T18:01:43.400Z,1.50
2023-02-04T18:04:38.325Z,1.48
2023-02-04T18:07:19.784Z,1.60
2023-02-04T18:09:49.845Z,1.40
2023-02-04T18:12:23.331Z,2.28
2023-02-04T18:14:52.761Z,3.92
2023-02-04T18:20:39.139Z,3.42
2023-02-04T18:23:18.546Z,2.58
2023-02-04T18:25:48.736Z,3.10
2023-02-04T18:28:21.172Z,2.75
2023-02-04T18:30:54.420Z,2.95
2023-02-04T18:33:28.505Z,2.67
2023-02-04T18:36:00.031Z,2.88
2023-02-04T18:38:34.420Z,2.72
2023-02-04T18:41:38.532Z,2.50
2023-02-04T18:44:24.375Z,3.03
2023-02-04T18:46:51.768Z,3.08
2023-02-04T18:49:32.446Z,2.92
2023-02-04T18:52:06.439Z,3.22
2023-02-04T18:54:40.340Z,3.13
2023-02-04T18:57:13.588Z,3.47
2023-02-04T18:59:41.659Z,3.35
2023-02-04T19:02:33.886Z,3.78
2023-02-04T19:05:26.689Z,3.80
2023-02-04T19:08:13.200Z,3.15
2023-02-04T19:10:46.620Z,3.80
2023-02-04T19:13:27.432Z,4.50
2023-02-04T19:15:54.738Z,4.00
2023-02-04T19:18:22.435Z,5.78
2023-02-04T19:20:50.034Z,8.57
2023-02-04T19:23:24.023Z,8.93
2023-02-04T19:25:52.821Z,9.32
2023-02-04T19:28:37.611Z,8.85
2023-02-04T19:31:08.145Z,10.43
2023-02-04T19:33:42.555Z,8.55
2023-02-04T19:36:37.397Z,5.65
2023-02-04T19:39:29.577Z,5.28
2023-02-04T19:42:00.425Z,4.68
2023-02-04T19:44:43.189Z,4.28
2023-02-04T19:47:26.325Z,4.70
2023-02-04T19:50:25.938Z,5.63
2023-02-04T19:53:01.319Z,5.73
2023-02-04T19:55:33.383Z,5.97
2023-02-04T19:58:00.967Z,6.13
2023-02-04T20:00:38.014Z,5.93
2023-02-04T20:03:44.578Z,5.13
2023-02-04T20:06:35.579Z,6.93
2023-02-04T20:09:15.619Z,5.55
2023-02-04T20:11:52.755Z,6.15
2023-02-04T20:14:37.617Z,5.32
2023-02-04T20:17:48.114Z,5.90
2023-02-04T20:20:20.614Z,4.95
2023-02-04T20:23:52.682Z,4.90
2023-02-04T20:32:03.862Z,4.13
2023-02-04T20:34:35.798Z,4.78
2023-02-04T20:37:03.031Z,4.72
2023-02-04T20:39:35.293Z,4.75
2023-02-04T20:42:26.641Z,4.53
2023-02-04T20:44:54.805Z,5.38
2023-02-04T20:47:25.794Z,5.05
2023-02-04T20:49:58.521Z,4.03
2023-02-04T20:52:51.355Z,5.10
2023-02-04T20:55:28.889Z,5.07
2023-02-04T20:58:23.096Z,4.40
2023-02-04T21:00:54.078Z,4.50
2023-02-04T21:03:30.118Z,4.57
2023-02-04T21:05:59.393Z,4.57
2023-02-04T21:08:43.538Z,4.88
2023-02-04T21:11:11.841Z,4.70
2023-02-04T21:13:40.916Z,5.15
2023-02-04T21:16:13.239Z,5.35
2023-02-04T21:18:42.060Z,6.40
2023-02-04T21:21:09.907Z,11.35
2023-02-04T21:23:40.562Z,6.68
2023-02-04T21:26:08.214Z,6.78
2023-02-04T21:28:35.608Z,5.85
2023-02-04T21:31:03.168Z,5.90
2023-02-04T21:33:38.920Z,5.47
2023-02-04T21:36:06.264Z,5.40
2023-02-04T21:38:33.646Z,4.95
2023-02-04T21:41:01.078Z,5.93
2023-02-04T21:43:48.373Z,5.75
2023-02-04T21:46:17.044Z,5.90
2023-02-04T21:48:44.940Z,5.82
2023-02-04T21:51:13.099Z,5.88
2023-02-04T21:53:40.228Z,6.43
2023-02-04T21:56:08.168Z,5.93
2023-02-04T21:58:35.545Z,5.03
2023-02-04T22:01:08.781Z,5.45
2023-02-04T22:03:45.619Z,5.00
2023-02-04T22:06:13.480Z,5.28
2023-02-04T22:08:40.729Z,4.88
2023-02-04T22:11:07.932Z,6.00
2023-02-04T22:13:35.175Z,5.18
2023-02-04T22:16:02.415Z,5.97
2023-02-04T22:18:29.755Z,5.53
2023-02-04T22:20:57.026Z,5.20
2023-02-04T22:23:24.303Z,4.38
2023-02-04T22:25:51.544Z,4.68
2023-02-04T22:28:18.876Z,4.68
2023-02-04T22:30:46.259Z,5.43
2023-02-04T22:33:14.228Z,4.38
2023-02-04T22:35:41.676Z,4.63
2023-02-04T22:38:09.171Z,5.88
2023-02-04T22:40:36.542Z,8.27
2023-02-04T22:43:04.873Z,6.03
2023-02-04T22:45:32.575Z,6.97
2023-02-04T22:47:59.669Z,8.15
2023-02-04T22:50:27.098Z,6.38
2023-02-04T22:52:54.442Z,5.95
2023-02-04T22:55:21.736Z,6.10
2023-02-04T22:57:49.043Z,4.63
2023-02-04T23:00:16.595Z,4.28
2023-02-04T23:02:43.975Z,5.20
2023-02-04T23:05:11.297Z,4.80
2023-02-04T23:07:38.756Z,4.47
2023-02-04T23:10:06.190Z,4.88
2023-02-04T23:12:33.515Z,4.68
2023-02-04T23:15:00.959Z,4.85
2023-02-04T23:17:28.315Z,4.80
2023-02-04T23:19:55.686Z,5.55
2023-02-04T23:22:23.002Z,4.47
2023-02-04T23:24:50.419Z,4.45
2023-02-04T23:27:17.732Z,5.05
2023-02-04T23:29:45.216Z,4.68
2023-02-04T23:32:12.564Z,4.57
2023-02-04T23:34:39.524Z,5.68
2023-02-04T23:37:06.996Z,6.00
2023-02-04T23:39:37.058Z,5.30
2023-02-04T23:42:04.567Z,5.13
2023-02-04T23:44:31.914Z,5.53
2023-02-04T23:46:59.255Z,5.07
2023-02-04T23:49:26.574Z,5.18
2023-02-04T23:51:53.994Z,5.05
2023-02-04T23:54:21.261Z,5.10
2023-02-04T23:56:48.428Z,5.15
2023-02-04T23:59:15.935Z,5.28
